Time;durP1;ratioP1;P1;durP2;ratioP2;P2;SDS_P1;SDS_P2;PMS_P1;PMS_P2;Temp;Humidity;BMP_temperature;BMP_pressure;BME280_temperature;BME280_humidity;BME280_pressure;Samples;Min_cycle;Max_cycle;Signal;HPM_P1;HPM_P2
2023/01/04 00:01:12;;;;;;;;;;;7.30;99.90;;;;;;5065491;28;20381;-75
2023/01/04 00:03:37;;;;;;;;;;;7.30;99.90;;;;;;5063927;28;19927;-75
2023/01/04 00:06:04;;;;;;;;;;;7.40;99.90;;;;;;5067632;28;20301;-74
2023/01/04 00:08:30;;;;;;;;;;;7.30;99.90;;;;;;5050851;28;19926;-75
2023/01/04 00:11:03;;;;;;;;;;;7.30;99.90;;;;;;5067103;28;19920;-75
2023/01/04 00:13:29;;;;;;;;;;;7.30;99.90;;;;;;5049925;28;20236;-75
2023/01/04 00:15:55;;;;;;;;;;;7.20;99.90;;;;;;5045716;28;20282;-75
2023/01/04 00:18:21;;;;;;;;;;;7.30;99.90;;;;;;5049535;28;19954;-75
2023/01/04 00:20:46;;;;;;;;;;;7.30;99.90;;;;;;5047603;28;19998;-75
2023/01/04 00:23:12;;;;;;;;;;;7.30;99.90;;;;;;5046607;28;19928;-75
2023/01/04 00:25:38;;;;;;;;;;;7.30;99.90;;;;;;5032399;28;19928;-75
2023/01/04 00:28:04;;;;;;;;;;;7.30;99.90;;;;;;5068236;28;20223;-75
2023/01/04 00:30:29;;;;;;;;;;;7.30;99.90;;;;;;5068361;28;19927;-75
2023/01/04 00:32:58;;;;;;;;;;;7.30;99.90;;;;;;5067569;28;19959;-75
2023/01/04 00:35:24;;;;;;;;;;;7.20;99.90;;;;;;5068709;28;19942;-75
2023/01/04 00:37:51;;;;;;;;;;;7.30;99.90;;;;;;5069221;28;20006;-75
2023/01/04 00:40:17;;;;;;;;;;;7.20;99.90;;;;;;5070366;28;19980;-75
2023/01/04 00:42:45;;;;;;;;;;;7.20;99.90;;;;;;5067781;28;19920;-75
2023/01/04 00:45:11;;;;;;;;;;;7.20;99.90;;;;;;5053784;28;19932;-74
2023/01/04 00:47:37;;;;;;;;;;;7.20;99.90;;;;;;5087937;28;20373;-74
2023/01/04 00:50:03;;;;;;;;;;;7.20;99.90;;;;;;5070634;28;19920;-75
2023/01/04 00:52:28;;;;;;;;;;;7.20;99.90;;;;;;5052164;28;19928;-75
2023/01/04 00:54:55;;;;;;;;;;;7.20;99.90;;;;;;5069597;28;19927;-75
2023/01/04 00:57:23;;;;;;;;;;;7.20;99.90;;;;;;5070205;28;19924;-75
2023/01/04 00:59:57;;;;;;;;;;;7.20;99.90;;;;;;5049896;28;20492;-75
2023/01/04 01:02:23;;;;;;;;;;;7.10;99.90;;;;;;5066647;28;19920;-75
2023/01/04 01:04:51;;;;;;;;;;;7.10;99.90;;;;;;5067134;28;20309;-75
2023/01/04 01:07:18;;;;;;;;;;;7.00;99.90;;;;;;5067749;28;19931;-75
2023/01/04 01:09:44;;;;;;;;;;;7.10;99.90;;;;;;5052186;28;19935;-75
2023/01/04 01:12:10;;;;;;;;;;;7.00;99.90;;;;;;5068302;28;20157;-75
2023/01/04 01:14:40;;;;;;;;;;;7.00;99.90;;;;;;5052099;28;19956;-75
2023/01/04 01:17:05;;;;;;;;;;;7.00;99.90;;;;;;5035748;28;20419;-75
2023/01/04 01:19:31;;;;;;;;;;;7.00;99.90;;;;;;5065592;28;19920;-75
2023/01/04 01:21:56;;;;;;;;;;;7.10;99.90;;;;;;5066795;28;20464;-75
2023/01/04 01:24:22;;;;;;;;;;;7.10;99.90;;;;;;5068484;28;20080;-75
2023/01/04 01:26:48;;;;;;;;;;;7.10;99.90;;;;;;5067919;28;20303;-75
2023/01/04 01:29:22;;;;;;;;;;;7.10;99.90;;;;;;5068071;28;19920;-75
2023/01/04 01:31:54;;;;;;;;;;;7.10;99.90;;;;;;5050865;28;20132;-75
2023/01/04 01:34:22;;;;;;;;;;;7.10;99.90;;;;;;5072428;28;20328;-75
2023/01/04 01:36:54;;;;;;;;;;;7.20;99.90;;;;;;5068087;28;20157;-75
2023/01/04 01:39:20;;;;;;;;;;;7.20;99.90;;;;;;5066792;28;20072;-75
2023/01/04 01:41:46;;;;;;;;;;;7.20;99.90;;;;;;5064514;28;20019;-75
2023/01/04 01:44:11;;;;;;;;;;;7.20;99.90;;;;;;5068778;28;19926;-75
2023/01/04 01:46:40;;;;;;;;;;;7.20;99.90;;;;;;5052792;28;20009;-76
2023/01/04 01:49:12;;;;;;;;;;;7.20;99.90;;;;;;5072569;28;19931;-75
2023/01/04 01:51:37;;;;;;;;;;;7.10;99.90;;;;;;5088422;28;19921;-76
2023/01/04 01:54:05;;;;;;;;;;;7.10;99.90;;;;;;5076307;28;20007;-76
2023/01/04 01:56:32;;;;;;;;;;;7.10;99.90;;;;;;5070253;28;19932;-76
2023/01/04 01:58:58;;;;;;;;;;;7.00;99.90;;;;;;5067715;28;19971;-77
2023/01/04 02:01:24;;;;;;;;;;;7.10;99.90;;;;;;5037843;28;19963;-76
2023/01/04 02:03:50;;;;;;;;;;;7.10;99.90;;;;;;5050724;28;19934;-76
2023/01/04 02:06:28;;;;;;;;;;;7.00;99.90;;;;;;5052801;28;19924;-75
2023/01/04 02:08:54;;;;;;;;;;;7.10;99.90;;;;;;5051657;28;20440;-76
2023/01/04 02:11:20;;;;;;;;;;;7.00;99.90;;;;;;5054391;28;19920;-76
2023/01/04 02:16:36;;;;;;;;;;;7.00;99.90;;;;;;5054135;28;20007;-76
2023/01/04 02:19:13;;;;;;;;;;;7.10;99.90;;;;;;5064171;28;20297;-76
2023/01/04 02:21:50;;;;;;;;;;;7.10;99.90;;;;;;5046385;28;19927;-76
2023/01/04 02:24:38;;;;;;;;;;;7.10;99.90;;;;;;5050384;28;20059;-75
2023/01/04 02:27:26;;;;;;;;;;;7.10;99.90;;;;;;5066107;28;19942;-76
2023/01/04 02:30:11;;;;;;;;;;;7.10;99.90;;;;;;5065048;28;19924;-76
2023/01/04 02:33:05;;;;;;;;;;;7.10;99.90;;;;;;5068166;28;19954;-77
2023/01/04 02:35:33;;;;;;;;;;;7.20;99.90;;;;;;5067895;28;20219;-78
2023/01/04 02:38:18;;;;;;;;;;;7.20;99.90;;;;;;5050981;28;19930;-77
2023/01/04 02:41:01;;;;;;;;;;;7.10;99.90;;;;;;5066556;28;19927;-77
2023/01/04 02:46:42;;;;;;;;;;;7.20;99.90;;;;;;5033879;28;20626;-76
2023/01/04 02:51:55;;;;;;;;;;;7.20;99.90;;;;;;5053443;28;20429;-78
2023/01/04 02:54:23;;;;;;;;;;;8.10;99.90;;;;;;5065976;28;20027;-79
2023/01/04 02:57:03;;;;;;;;;;;7.30;99.90;;;;;;5066429;28;19931;-78
2023/01/04 02:59:34;;;;;;;;;;;7.40;99.90;;;;;;5064721;28;19931;-77
2023/01/04 03:07:49;;;;;;;;;;;7.50;99.90;;;;;;5066500;28;19920;-78
2023/01/04 03:10:22;;;;;;;;;;;7.40;99.90;;;;;;5043880;28;20409;-80
2023/01/04 03:13:02;;;;;;;;;;;7.50;99.90;;;;;;5084072;28;19920;-79
2023/01/04 03:15:33;;;;;;;;;;;7.60;99.90;;;;;;5067638;28;19928;-79
2023/01/04 03:18:05;;;;;;;;;;;7.60;99.90;;;;;;5065173;28;20560;-79
2023/01/04 03:20:31;;;;;;;;;;;7.60;99.90;;;;;;5052428;28;19975;-79
2023/01/04 03:37:07;;;;;;;;;;;7.90;99.90;;;;;;5063713;28;19932;-80
2023/01/04 03:48:32;;;;;;;;;;;8.10;99.90;;;;;;5063907;28;19924;-78
2023/01/04 03:51:02;;;;;;;;;;;8.20;99.90;;;;;;5070901;28;19969;-79
2023/01/04 03:53:30;;;;;;;;;;;8.30;99.90;;;;;;5058959;28;19920;-79
2023/01/04 03:56:00;;;;;;;;;;;8.30;99.90;;;;;;5062933;28;20001;-80
2023/01/04 03:58:28;;;;;;;;;;;8.30;99.90;;;;;;5065498;28;19924;-79
2023/01/04 04:01:02;;;;;;;;;;;8.40;99.90;;;;;;5048780;28;19920;-80
2023/01/04 04:08:56;;;;;;;;;;;8.40;99.90;;;;;;5070515;28;19976;-80
2023/01/04 04:11:31;;;;;;;;;;;8.50;99.90;;;;;;5055055;28;19924;-80
2023/01/04 04:13:58;;;;;;;;;;;8.40;99.90;;;;;;5041457;28;20377;-79
2023/01/04 04:16:24;;;;;;;;;;;8.50;99.90;;;;;;5054930;28;19920;-80
2023/01/04 04:18:49;;;;;;;;;;;8.50;99.90;;;;;;5055924;28;20388;-79
2023/01/04 04:21:15;;;;;;;;;;;8.50;99.90;;;;;;5072456;28;20067;-80
2023/01/04 04:23:44;;;;;;;;;;;8.50;99.90;;;;;;5054560;28;20339;-81
2023/01/04 04:26:09;;;;;;;;;;;8.70;99.90;;;;;;5052050;28;20404;-81
2023/01/04 04:28:35;;;;;;;;;;;8.70;99.90;;;;;;5055534;28;19920;-79
2023/01/04 04:31:01;;;;;;;;;;;8.60;99.90;;;;;;5070313;28;20427;-81
2023/01/04 04:33:27;;;;;;;;;;;8.70;99.90;;;;;;5074412;28;20416;-79
2023/01/04 04:35:53;;;;;;;;;;;8.70;99.90;;;;;;5055489;28;19920;-79
2023/01/04 04:38:18;;;;;;;;;;;8.70;99.90;;;;;;5071073;28;19932;-80
2023/01/04 04:43:28;;;;;;;;;;;8.80;99.90;;;;;;5068079;28;19924;-80
2023/01/04 04:45:54;;;;;;;;;;;8.90;99.90;;;;;;5052459;28;19945;-81
2023/01/04 04:48:20;;;;;;;;;;;8.90;99.90;;;;;;5069882;28;19971;-82
2023/01/04 04:50:46;;;;;;;;;;;8.90;99.90;;;;;;5069510;28;19930;-82
2023/01/04 04:53:12;;;;;;;;;;;8.90;99.90;;;;;;5072459;28;19966;-82
2023/01/04 04:55:37;;;;;;;;;;;8.90;99.90;;;;;;5071539;28;19920;-81
2023/01/04 04:58:03;;;;;;;;;;;8.90;99.90;;;;;;5055150;28;20444;-81
2023/01/04 05:00:29;;;;;;;;;;;9.00;99.90;;;;;;5056609;28;20015;-81
2023/01/04 05:02:57;;;;;;;;;;;9.00;99.90;;;;;;5055674;28;20266;-81
2023/01/04 05:05:22;;;;;;;;;;;9.10;99.90;;;;;;5073523;28;19928;-82
2023/01/04 05:07:48;;;;;;;;;;;9.10;99.90;;;;;;5070131;28;20278;-80
2023/01/04 05:10:14;;;;;;;;;;;9.10;99.90;;;;;;5072082;28;19920;-81
2023/01/04 05:15:43;;;;;;;;;;;9.10;99.90;;;;;;5051526;28;20006;-80
2023/01/04 05:18:13;;;;;;;;;;;9.10;99.90;;;;;;5070467;28;20014;-79
2023/01/04 05:20:39;;;;;;;;;;;9.20;99.90;;;;;;5050451;28;19969;-81
2023/01/04 05:23:05;;;;;;;;;;;9.30;99.90;;;;;;5053890;28;20011;-82
2023/01/04 05:25:31;;;;;;;;;;;9.20;99.90;;;;;;5069010;28;19924;-82
2023/01/04 05:27:56;;;;;;;;;;;9.30;99.90;;;;;;5050785;28;19928;-82
2023/01/04 05:33:06;;;;;;;;;;;9.30;99.90;;;;;;5050300;28;19939;-81
2023/01/04 05:35:32;;;;;;;;;;;9.30;99.90;;;;;;5032438;28;20406;-82
2023/01/04 05:37:58;;;;;;;;;;;9.40;99.90;;;;;;5052886;28;19924;-82
2023/01/04 05:40:23;;;;;;;;;;;9.40;99.90;;;;;;5035893;28;19927;-81
2023/01/04 05:42:49;;;;;;;;;;;9.40;99.90;;;;;;5065416;28;20006;-81
2023/01/04 05:45:16;;;;;;;;;;;9.40;99.90;;;;;;5069595;28;19976;-80
2023/01/04 05:47:42;;;;;;;;;;;9.50;99.90;;;;;;5047564;28;20283;-80
2023/01/04 05:50:08;;;;;;;;;;;9.50;99.90;;;;;;5045239;28;19952;-80
2023/01/04 05:52:34;;;;;;;;;;;9.50;99.90;;;;;;5030156;28;19920;-80
2023/01/04 05:54:59;;;;;;;;;;;9.50;99.90;;;;;;5014699;28;19962;-81
2023/01/04 05:57:25;;;;;;;;;;;9.60;99.90;;;;;;5030039;28;20024;-80
2023/01/04 05:59:51;;;;;;;;;;;9.60;99.90;;;;;;5028112;28;19932;-81
2023/01/04 06:02:27;;;;;;;;;;;9.60;99.90;;;;;;5026026;28;20388;-81
2023/01/04 06:04:53;;;;;;;;;;;9.60;99.90;;;;;;5041488;28;19922;-81
2023/01/04 06:07:18;;;;;;;;;;;9.60;99.90;;;;;;5031340;28;19934;-81
2023/01/04 06:09:44;;;;;;;;;;;9.70;99.90;;;;;;5041797;28;20404;-83
2023/01/04 06:12:10;;;;;;;;;;;9.70;99.90;;;;;;5044145;28;19929;-80
2023/01/04 06:14:35;;;;;;;;;;;9.70;99.90;;;;;;5042634;28;19925;-81
2023/01/04 06:17:01;;;;;;;;;;;9.70;99.90;;;;;;5025663;28;19936;-79
2023/01/04 06:19:26;;;;;;;;;;;9.70;99.90;;;;;;5044699;28;19921;-80
2023/01/04 06:21:52;;;;;;;;;;;9.70;99.90;;;;;;5045556;28;19925;-79
2023/01/04 06:24:18;;;;;;;;;;;9.80;99.90;;;;;;5037847;28;19909;-80
2023/01/04 06:26:44;;;;;;;;;;;9.80;99.90;;;;;;5071041;28;19932;-79
2023/01/04 06:29:09;;;;;;;;;;;9.70;99.90;;;;;;5053404;28;19952;-80
2023/01/04 06:31:35;;;;;;;;;;;9.80;99.90;;;;;;5071317;28;19955;-79
2023/01/04 06:34:01;;;;;;;;;;;9.80;99.90;;;;;;5047799;28;19960;-80
2023/01/04 06:36:27;;;;;;;;;;;9.80;99.90;;;;;;5030351;28;19925;-80
2023/01/04 06:38:53;;;;;;;;;;;9.90;99.90;;;;;;5044334;28;19974;-81
2023/01/04 06:41:18;;;;;;;;;;;9.90;99.90;;;;;;5028402;28;19927;-81
2023/01/04 06:43:44;;;;;;;;;;;9.90;99.90;;;;;;5041030;28;20007;-80
2023/01/04 06:46:10;;;;;;;;;;;9.80;99.90;;;;;;5049837;28;20022;-80
2023/01/04 06:48:35;;;;;;;;;;;9.90;99.90;;;;;;5032960;28;19925;-81
2023/01/04 06:51:01;;;;;;;;;;;9.90;99.90;;;;;;5067810;28;19928;-80
2023/01/04 06:53:27;;;;;;;;;;;9.90;99.90;;;;;;5069677;28;19928;-79
2023/01/04 06:55:52;;;;;;;;;;;9.90;99.90;;;;;;5064106;28;19920;-81
2023/01/04 06:58:18;;;;;;;;;;;9.90;99.90;;;;;;5052364;28;20423;-81
2023/01/04 07:01:05;;;;;;;;;;;9.90;99.90;;;;;;5067363;28;19930;-80
2023/01/04 07:03:31;;;;;;;;;;;9.90;99.90;;;;;;5066985;28;19979;-80
2023/01/04 07:05:56;;;;;;;;;;;9.90;99.90;;;;;;5047709;28;19997;-81
2023/01/04 07:08:22;;;;;;;;;;;10.00;99.90;;;;;;5035228;28;19920;-81
2023/01/04 07:10:48;;;;;;;;;;;10.00;99.90;;;;;;5068214;28;20014;-82
2023/01/04 07:13:14;;;;;;;;;;;9.90;99.90;;;;;;5064926;28;19965;-81
2023/01/04 07:15:39;;;;;;;;;;;9.90;99.90;;;;;;5050610;28;21771;-79
2023/01/04 07:18:05;;;;;;;;;;;10.00;99.90;;;;;;5047414;28;19928;-79
2023/01/04 07:20:31;;;;;;;;;;;10.00;99.90;;;;;;5050553;28;19999;-80
2023/01/04 07:22:56;;;;;;;;;;;10.00;99.90;;;;;;5044804;28;19971;-79
2023/01/04 07:25:22;;;;;;;;;;;10.00;99.90;;;;;;5082729;28;20019;-80
2023/01/04 07:27:52;;;;;;;;;;;10.00;99.90;;;;;;5064751;28;19947;-79
2023/01/04 07:30:18;;;;;;;;;;;10.00;99.90;;;;;;5082196;28;19924;-78
2023/01/04 07:32:43;;;;;;;;;;;10.00;99.90;;;;;;5063581;28;19920;-79
2023/01/04 07:35:09;;;;;;;;;;;10.00;99.90;;;;;;5046568;28;19927;-79
2023/01/04 07:37:35;;;;;;;;;;;10.00;99.90;;;;;;5065473;28;20671;-79
2023/01/04 07:40:00;;;;;;;;;;;10.10;99.90;;;;;;5064939;28;19968;-79
2023/01/04 07:42:26;;;;;;;;;;;10.10;99.90;;;;;;5062152;28;19946;-80
2023/01/04 07:44:51;;;;;;;;;;;10.00;99.90;;;;;;5043323;28;20015;-79
2023/01/04 07:47:17;;;;;;;;;;;10.10;99.90;;;;;;5027642;28;19932;-80
2023/01/04 07:49:43;;;;;;;;;;;10.00;99.90;;;;;;5029353;28;19920;-80
2023/01/04 07:52:08;;;;;;;;;;;10.10;99.90;;;;;;5058131;28;19985;-81
2023/01/04 07:54:36;;;;;;;;;;;10.10;99.90;;;;;;5062288;28;20019;-81
2023/01/04 07:57:07;;;;;;;;;;;10.10;99.90;;;;;;5055339;28;20012;-81
2023/01/04 07:59:33;;;;;;;;;;;10.10;99.90;;;;;;5050179;28;20022;-81
2023/01/04 08:02:01;;;;;;;;;;;10.10;99.90;;;;;;5046937;28;19940;-80
2023/01/04 08:04:27;;;;;;;;;;;10.10;99.90;;;;;;5057311;28;20007;-81
2023/01/04 08:06:53;;;;;;;;;;;10.10;99.90;;;;;;5043022;28;20008;-81
2023/01/04 08:09:18;;;;;;;;;;;10.10;99.90;;;;;;5045623;28;19951;-82
2023/01/04 08:11:44;;;;;;;;;;;10.20;99.90;;;;;;5044966;28;19920;-81
2023/01/04 08:14:10;;;;;;;;;;;10.20;99.90;;;;;;5038056;28;19920;-81
2023/01/04 08:16:37;;;;;;;;;;;10.20;99.90;;;;;;5047390;28;20174;-81
2023/01/04 08:19:17;;;;;;;;;;;10.20;99.90;;;;;;5055471;28;19927;-81
2023/01/04 08:21:43;;;;;;;;;;;10.20;99.90;;;;;;5045759;28;19920;-81
2023/01/04 08:24:09;;;;;;;;;;;10.20;99.90;;;;;;5063697;28;19927;-82
2023/01/04 08:26:35;;;;;;;;;;;10.20;99.90;;;;;;5042978;28;19920;-80
2023/01/04 08:29:00;;;;;;;;;;;10.20;99.90;;;;;;5024512;28;19950;-81
2023/01/04 08:31:28;;;;;;;;;;;10.30;99.90;;;;;;5050551;28;19994;-79
2023/01/04 08:33:54;;;;;;;;;;;10.30;99.90;;;;;;5049510;28;20257;-80
2023/01/04 08:36:24;;;;;;;;;;;10.40;99.90;;;;;;5060131;28;19968;-79
2023/01/04 08:38:51;;;;;;;;;;;10.30;99.90;;;;;;5050577;28;19982;-80
2023/01/04 08:41:17;;;;;;;;;;;10.30;99.90;;;;;;5062917;28;19967;-80
2023/01/04 08:43:43;;;;;;;;;;;10.30;99.90;;;;;;5067518;28;19963;-81
2023/01/04 08:46:09;;;;;;;;;;;10.40;99.90;;;;;;5060014;28;19975;-81
2023/01/04 08:48:35;;;;;;;;;;;10.40;99.90;;;;;;5060905;28;19974;-82
2023/01/04 08:51:02;;;;;;;;;;;10.40;99.90;;;;;;5053058;28;19928;-81
2023/01/04 08:53:28;;;;;;;;;;;10.40;99.90;;;;;;5049323;28;19927;-80
2023/01/04 08:55:54;;;;;;;;;;;10.40;99.90;;;;;;5067003;28;19982;-81
2023/01/04 08:58:20;;;;;;;;;;;10.50;99.90;;;;;;5065250;28;20027;-81
2023/01/04 09:00:46;;;;;;;;;;;10.40;99.90;;;;;;5062438;28;19965;-81
2023/01/04 09:03:12;;;;;;;;;;;10.50;99.90;;;;;;5032637;28;20326;-82
2023/01/04 09:05:37;;;;;;;;;;;10.50;99.90;;;;;;5057539;28;19921;-82
2023/01/04 09:08:03;;;;;;;;;;;10.50;99.90;;;;;;5062556;28;19943;-81
2023/01/04 09:10:29;;;;;;;;;;;10.50;99.90;;;;;;5047903;28;19928;-82
2023/01/04 09:12:55;;;;;;;;;;;10.50;99.90;;;;;;5050807;28;20270;-82
2023/01/04 09:15:20;;;;;;;;;;;10.50;99.90;;;;;;5066956;28;19924;-80
2023/01/04 09:17:47;;;;;;;;;;;10.50;99.90;;;;;;5066405;28;19936;-81
2023/01/04 09:20:13;;;;;;;;;;;10.50;99.90;;;;;;5069610;28;20042;-80
2023/01/04 09:22:39;;;;;;;;;;;10.50;99.90;;;;;;5046195;28;20015;-80
2023/01/04 09:25:04;;;;;;;;;;;10.50;99.90;;;;;;5046900;28;19924;-81
2023/01/04 09:27:30;;;;;;;;;;;10.60;99.90;;;;;;5054081;28;19924;-81
2023/01/04 09:29:56;;;;;;;;;;;10.60;99.90;;;;;;5069280;28;20046;-82
2023/01/04 09:32:22;;;;;;;;;;;10.60;99.90;;;;;;5067247;28;20035;-81
2023/01/04 09:34:47;;;;;;;;;;;10.60;99.90;;;;;;5064692;28;20308;-83
2023/01/04 09:37:13;;;;;;;;;;;10.60;99.90;;;;;;5027745;28;19950;-81
2023/01/04 09:39:39;;;;;;;;;;;10.60;99.90;;;;;;5062854;28;19927;-81
2023/01/04 09:42:13;;;;;;;;;;;10.60;99.90;;;;;;5068588;28;20023;-81
2023/01/04 09:44:48;;;;;;;;;;;10.60;99.90;;;;;;5071183;28;19927;-82
2023/01/04 09:47:16;;;;;;;;;;;10.50;99.90;;;;;;5064278;28;19959;-81
2023/01/04 09:49:44;;;;;;;;;;;10.60;99.90;;;;;;5067758;28;20458;-81
2023/01/04 09:52:16;;;;;;;;;;;10.60;99.90;;;;;;5060966;28;20433;-81
2023/01/04 09:54:59;;;;;;;;;;;10.60;99.90;;;;;;5064344;28;19920;-83
2023/01/04 09:57:27;;;;;;;;;;;10.70;99.90;;;;;;5061558;28;20366;-81
2023/01/04 10:00:01;;;;;;;;;;;10.60;99.90;;;;;;5065047;28;20478;-82
2023/01/04 10:02:37;;;;;;;;;;;10.60;99.90;;;;;;5063317;28;19970;-82
2023/01/04 10:05:04;;;;;;;;;;;10.60;99.90;;;;;;5036002;28;19920;-82
2023/01/04 10:07:31;;;;;;;;;;;10.60;99.90;;;;;;5027406;28;20381;-83
2023/01/04 10:09:59;;;;;;;;;;;10.60;99.90;;;;;;5047890;28;20377;-81
2023/01/04 10:12:28;;;;;;;;;;;10.60;99.90;;;;;;5062672;28;20308;-81
2023/01/04 10:15:12;;;;;;;;;;;10.70;99.90;;;;;;5063827;28;20031;-84
2023/01/04 10:17:53;;;;;;;;;;;10.70;99.90;;;;;;5048617;28;19924;-83
2023/01/04 10:20:19;;;;;;;;;;;10.70;99.90;;;;;;5067614;28;20419;-84
2023/01/04 10:23:03;;;;;;;;;;;10.70;99.90;;;;;;5067488;28;19920;-85
2023/01/04 10:25:37;;;;;;;;;;;10.70;99.90;;;;;;5061835;28;19920;-84
2023/01/04 10:28:13;;;;;;;;;;;10.70;99.90;;;;;;5049166;28;19920;-82
2023/01/04 10:30:51;;;;;;;;;;;10.70;99.90;;;;;;5047805;28;19966;-82
2023/01/04 10:33:23;;;;;;;;;;;10.70;99.90;;;;;;5063779;28;19929;-81
2023/01/04 10:35:49;;;;;;;;;;;10.70;99.90;;;;;;5063517;28;20054;-81
2023/01/04 10:38:17;;;;;;;;;;;10.70;99.90;;;;;;5027881;28;19925;-80
2023/01/04 10:40:44;;;;;;;;;;;10.80;99.90;;;;;;5045948;28;19974;-82
2023/01/04 10:43:15;;;;;;;;;;;10.70;99.90;;;;;;5061683;28;19970;-81
2023/01/04 10:46:00;;;;;;;;;;;10.80;99.90;;;;;;5046982;28;19980;-80
2023/01/04 10:48:32;;;;;;;;;;;10.80;99.90;;;;;;5049650;28;19925;-80
2023/01/04 10:50:58;;;;;;;;;;;10.80;99.90;;;;;;5033098;28;20374;-81
2023/01/04 10:53:30;;;;;;;;;;;10.80;99.90;;;;;;5049662;28;19990;-79
2023/01/04 10:56:02;;;;;;;;;;;10.90;99.90;;;;;;5049152;28;19960;-80
2023/01/04 10:58:30;;;;;;;;;;;10.90;99.90;;;;;;5031413;28;19924;-80
2023/01/04 11:00:59;;;;;;;;;;;10.90;99.90;;;;;;5049287;28;20019;-80
2023/01/04 11:03:32;;;;;;;;;;;10.90;99.90;;;;;;5032919;28;20016;-79
2023/01/04 11:06:07;;;;;;;;;;;10.90;99.90;;;;;;5066116;28;19921;-80
2023/01/04 11:08:54;;;;;;;;;;;11.00;99.90;;;;;;5030801;28;19920;-80
2023/01/04 11:11:23;;;;;;;;;;;11.00;99.90;;;;;;5048943;28;20386;-80
2023/01/04 11:13:49;;;;;;;;;;;11.00;99.90;;;;;;5032026;28;20479;-80
2023/01/04 11:16:15;;;;;;;;;;;11.00;99.90;;;;;;5069335;28;19909;-82
2023/01/04 11:18:41;;;;;;;;;;;11.10;99.90;;;;;;5042038;28;20117;-80
2023/01/04 11:21:11;;;;;;;;;;;11.10;99.90;;;;;;5074584;28;19952;-80
2023/01/04 11:23:36;;;;;;;;;;;11.10;99.90;;;;;;5062039;28;19920;-79
2023/01/04 11:26:12;;;;;;;;;;;11.10;99.90;;;;;;5048846;28;19928;-79
2023/01/04 11:28:42;;;;;;;;;;;11.10;99.90;;;;;;5048920;28;19921;-79
2023/01/04 11:31:10;;;;;;;;;;;11.20;99.90;;;;;;5049338;28;20291;-79
2023/01/04 11:33:52;;;;;;;;;;;11.10;99.90;;;;;;5049103;28;20345;-79
2023/01/04 11:36:32;;;;;;;;;;;11.10;99.90;;;;;;5032567;28;19944;-80
2023/01/04 11:38:58;;;;;;;;;;;11.10;99.90;;;;;;5049069;28;19951;-79
2023/01/04 11:41:24;;;;;;;;;;;11.20;99.90;;;;;;5015851;28;19921;-78
2023/01/04 11:44:00;;;;;;;;;;;11.20;99.90;;;;;;5033144;28;19921;-79
2023/01/04 11:46:27;;;;;;;;;;;11.20;99.90;;;;;;5045764;28;19925;-79
2023/01/04 11:48:53;;;;;;;;;;;11.20;99.90;;;;;;5021698;28;19964;-79
2023/01/04 11:51:33;;;;;;;;;;;11.20;99.90;;;;;;5053338;28;19974;-79
2023/01/04 11:54:04;;;;;;;;;;;11.30;99.90;;;;;;5044328;28;19924;-79
2023/01/04 11:56:31;;;;;;;;;;;11.30;99.90;;;;;;5028240;28;19921;-79
2023/01/04 11:59:03;;;;;;;;;;;11.30;99.90;;;;;;5029261;28;19925;-78
2023/01/04 12:01:30;;;;;;;;;;;11.40;99.90;;;;;;5042005;28;19936;-78
2023/01/04 12:03:56;;;;;;;;;;;11.30;99.90;;;;;;5017330;28;20387;-79
2023/01/04 12:06:35;;;;;;;;;;;11.30;99.90;;;;;;5031965;28;19995;-77
2023/01/04 12:09:01;;;;;;;;;;;11.40;99.90;;;;;;5030096;28;20279;-78
2023/01/04 12:11:27;;;;;;;;;;;11.40;99.90;;;;;;5025214;28;19928;-77
2023/01/04 12:13:52;;;;;;;;;;;11.40;99.90;;;;;;5019690;28;19925;-78
2023/01/04 12:16:27;;;;;;;;;;;11.40;99.90;;;;;;5041189;28;20461;-78
2023/01/04 12:18:52;;;;;;;;;;;11.40;99.90;;;;;;5024890;28;20416;-77
2023/01/04 12:21:26;;;;;;;;;;;11.40;99.90;;;;;;5013663;28;19964;-78
2023/01/04 12:23:53;;;;;;;;;;;11.50;99.90;;;;;;5026390;28;19924;-78
2023/01/04 12:26:19;;;;;;;;;;;11.50;99.90;;;;;;5040067;28;19921;-78
2023/01/04 12:29:07;;;;;;;;;;;11.50;99.90;;;;;;5033015;28;19967;-78
2023/01/04 12:31:33;;;;;;;;;;;11.50;99.90;;;;;;5049095;28;20298;-77
2023/01/04 12:34:22;;;;;;;;;;;11.50;99.90;;;;;;5034500;28;19932;-78
2023/01/04 12:36:54;;;;;;;;;;;11.50;99.90;;;;;;5033623;28;19921;-78
2023/01/04 12:39:21;;;;;;;;;;;11.50;99.90;;;;;;5057123;28;19928;-78
2023/01/04 12:42:05;;;;;;;;;;;11.50;99.90;;;;;;5040238;28;19921;-77
2023/01/04 12:44:51;;;;;;;;;;;11.40;99.90;;;;;;5065085;28;19928;-77
2023/01/04 12:50:06;;;;;;;;;;;11.40;99.90;;;;;;5082661;28;20015;-77
2023/01/04 12:52:45;;;;;;;;;;;11.40;99.90;;;;;;5045830;28;20460;-77
2023/01/04 12:55:23;;;;;;;;;;;11.40;99.90;;;;;;5063800;28;19920;-77
2023/01/04 12:57:48;;;;;;;;;;;11.40;99.90;;;;;;5062510;28;20022;-76
2023/01/04 13:00:14;;;;;;;;;;;11.40;99.90;;;;;;5044643;28;19952;-76
2023/01/04 13:02:50;;;;;;;;;;;11.40;99.90;;;;;;5058373;28;19920;-76
2023/01/04 13:05:19;;;;;;;;;;;11.40;99.90;;;;;;5062529;28;19935;-76
2023/01/04 13:07:49;;;;;;;;;;;11.50;99.90;;;;;;5042099;28;19924;-77
2023/01/04 13:10:19;;;;;;;;;;;11.50;99.90;;;;;;5045840;28;20434;-77
2023/01/04 13:12:45;;;;;;;;;;;11.50;99.90;;;;;;5062404;28;20393;-77
2023/01/04 13:15:21;;;;;;;;;;;11.50;99.90;;;;;;5041482;28;19940;-76
2023/01/04 13:17:47;;;;;;;;;;;11.50;99.90;;;;;;5045664;28;19990;-76
2023/01/04 13:20:19;;;;;;;;;;;11.50;99.90;;;;;;5062459;28;19928;-77
2023/01/04 13:22:53;;;;;;;;;;;11.50;99.90;;;;;;5043809;28;19924;-77
2023/01/04 13:25:22;;;;;;;;;;;11.50;99.90;;;;;;5045722;28;19928;-76
2023/01/04 13:27:58;;;;;;;;;;;11.50;99.90;;;;;;5054842;28;19924;-76
2023/01/04 13:30:32;;;;;;;;;;;11.50;99.90;;;;;;5042566;28;19951;-77
2023/01/04 13:33:07;;;;;;;;;;;11.50;99.90;;;;;;5078819;28;19924;-76
2023/01/04 13:35:36;;;;;;;;;;;11.50;99.90;;;;;;5059602;28;19927;-76
2023/01/04 13:38:02;;;;;;;;;;;11.60;99.90;;;;;;5061218;28;19928;-77
2023/01/04 13:40:34;;;;;;;;;;;11.60;99.90;;;;;;5042950;28;20003;-77
2023/01/04 13:43:05;;;;;;;;;;;11.60;99.90;;;;;;5047135;28;19931;-76
2023/01/04 13:45:48;;;;;;;;;;;11.50;99.90;;;;;;5078160;28;19931;-76
2023/01/04 13:48:21;;;;;;;;;;;11.70;99.90;;;;;;5057935;28;19935;-76
2023/01/04 13:51:15;;;;;;;;;;;11.60;99.90;;;;;;5040558;28;19935;-77
2023/01/04 13:53:58;;;;;;;;;;;11.50;99.90;;;;;;5057129;28;20662;-76
2023/01/04 13:56:30;;;;;;;;;;;11.50;99.90;;;;;;5059558;28;19928;-76
2023/01/04 13:58:56;;;;;;;;;;;11.50;99.90;;;;;;5058682;28;20282;-77
2023/01/04 14:01:25;;;;;;;;;;;11.60;99.90;;;;;;5062117;28;19981;-77
2023/01/04 14:04:03;;;;;;;;;;;11.60;99.90;;;;;;5062166;28;19928;-76
2023/01/04 14:06:33;;;;;;;;;;;11.70;99.90;;;;;;5058190;28;19931;-76
2023/01/04 14:09:00;;;;;;;;;;;11.60;99.90;;;;;;5061400;28;19928;-76
2023/01/04 14:12:00;;;;;;;;;;;11.60;99.90;;;;;;5060385;28;20052;-76
2023/01/04 14:14:29;;;;;;;;;;;11.60;99.90;;;;;;5060882;28;19925;-76
2023/01/04 14:17:13;;;;;;;;;;;11.60;99.90;;;;;;5060991;28;19924;-77
2023/01/04 14:19:45;;;;;;;;;;;11.70;99.90;;;;;;5059882;28;19920;-76
2023/01/04 14:22:24;;;;;;;;;;;11.70;99.90;;;;;;5045449;28;20332;-76
2023/01/04 14:24:51;;;;;;;;;;;11.70;99.90;;;;;;5062191;28;19990;-76
2023/01/04 14:27:33;;;;;;;;;;;11.60;99.90;;;;;;5040828;28;19924;-76
2023/01/04 14:29:59;;;;;;;;;;;11.60;99.90;;;;;;5044097;28;19951;-76
2023/01/04 14:32:25;;;;;;;;;;;11.50;99.90;;;;;;5060130;28;20365;-76
2023/01/04 14:34:52;;;;;;;;;;;11.40;99.90;;;;;;5042870;28;20892;-76
2023/01/04 14:37:21;;;;;;;;;;;11.40;99.90;;;;;;5037856;28;20313;-77
2023/01/04 14:39:49;;;;;;;;;;;11.40;99.90;;;;;;5061266;28;20392;-77
2023/01/04 14:42:25;;;;;;;;;;;11.40;99.90;;;;;;5063538;28;20634;-77
2023/01/04 14:44:50;;;;;;;;;;;11.40;99.90;;;;;;5047558;28;19925;-78
2023/01/04 14:47:16;;;;;;;;;;;11.40;99.90;;;;;;5044466;28;19974;-77
2023/01/04 14:49:42;;;;;;;;;;;11.50;99.90;;;;;;5046073;28;19920;-77
2023/01/04 14:52:17;;;;;;;;;;;11.50;99.90;;;;;;5059129;28;19929;-76
2023/01/04 14:54:43;;;;;;;;;;;11.50;99.90;;;;;;5060156;28;20270;-77
2023/01/04 14:57:10;;;;;;;;;;;11.60;99.90;;;;;;5045355;28;19924;-76
2023/01/04 14:59:35;;;;;;;;;;;11.50;99.90;;;;;;5041382;28;20003;-77
2023/01/04 15:02:01;;;;;;;;;;;11.50;99.90;;;;;;5043281;28;20011;-76
2023/01/04 15:04:27;;;;;;;;;;;11.50;99.90;;;;;;5057480;28;19982;-76
2023/01/04 15:06:54;;;;;;;;;;;11.50;99.90;;;;;;5044218;28;20374;-77
2023/01/04 15:09:22;;;;;;;;;;;11.50;99.90;;;;;;5061632;28;19920;-76
2023/01/04 15:11:49;;;;;;;;;;;11.60;99.90;;;;;;5059177;28;19928;-76
2023/01/04 15:14:18;;;;;;;;;;;11.60;99.90;;;;;;5037465;28;20266;-76
2023/01/04 15:16:44;;;;;;;;;;;11.50;99.90;;;;;;5059058;28;20010;-76
2023/01/04 15:19:14;;;;;;;;;;;11.50;99.90;;;;;;5052915;28;19961;-76
2023/01/04 15:21:42;;;;;;;;;;;11.50;99.90;;;;;;5048848;28;19920;-76
2023/01/04 15:24:08;;;;;;;;;;;11.40;99.90;;;;;;5058101;28;19921;-76
2023/01/04 15:26:43;;;;;;;;;;;11.40;99.90;;;;;;5033162;28;19924;-77
2023/01/04 15:29:14;;;;;;;;;;;11.40;99.90;;;;;;5037307;28;20382;-76